createdAt,value
2017-08-28T00:02:14.130Z,9.03
2017-08-28T00:04:42.436Z,5.90
2017-08-28T00:07:11.066Z,9.27
2017-08-28T00:09:39.344Z,5.60
2017-08-28T00:12:07.940Z,6.60
2017-08-28T00:14:36.517Z,6.20
2017-08-28T00:17:04.802Z,7.30
2017-08-28T00:19:33.309Z,10.07
2017-08-28T00:22:01.655Z,7.93
2017-08-28T00:24:29.958Z,8.30
2017-08-28T00:26:58.544Z,5.87
2017-08-28T00:29:28.086Z,6.90
2017-08-28T00:31:56.527Z,11.37
2017-08-28T00:34:24.835Z,5.90
2017-08-28T00:36:53.115Z,7.00
2017-08-28T00:39:21.732Z,8.83
2017-08-28T00:41:50.763Z,6.27
2017-08-28T00:44:19.101Z,7.23
2017-08-28T00:46:48.192Z,5.77
2017-08-28T00:49:16.468Z,7.10
2017-08-28T00:51:45.866Z,6.70
2017-08-28T00:54:14.169Z,6.07
2017-08-28T00:56:42.475Z,5.17
2017-08-28T00:59:10.794Z,6.20
2017-08-28T01:01:39.094Z,8.33
2017-08-28T01:04:08.520Z,6.40
2017-08-28T01:06:36.869Z,5.97
2017-08-28T01:09:05.162Z,5.80
2017-08-28T01:11:34.765Z,7.20
2017-08-28T01:14:03.080Z,6.50
2017-08-28T01:16:32.101Z,6.50
2017-08-28T01:19:00.754Z,7.27
2017-08-28T01:21:29.146Z,6.10
2017-08-28T01:23:57.462Z,13.30
2017-08-28T01:26:26.321Z,6.37
2017-08-28T01:28:54.608Z,6.53
2017-08-28T01:31:22.894Z,9.47
2017-08-28T01:33:57.056Z,8.87
2017-08-28T01:36:25.405Z,5.97
2017-08-28T01:38:53.998Z,7.33
2017-08-28T01:41:22.333Z,7.13
2017-08-28T01:43:50.607Z,7.20
2017-08-28T01:46:18.914Z,5.93
2017-08-28T01:48:47.724Z,6.20
2017-08-28T01:51:16.492Z,6.97
2017-08-28T01:53:44.820Z,10.50
2017-08-28T01:56:13.116Z,6.27
2017-08-28T01:58:41.404Z,7.93
2017-08-28T02:01:09.695Z,6.43
2017-08-28T02:03:38.310Z,6.60
2017-08-28T02:06:06.602Z,6.50
2017-08-28T02:08:34.937Z,8.37
2017-08-28T02:11:04.703Z,6.87
2017-08-28T02:13:33.621Z,7.23
2017-08-28T02:16:03.010Z,8.73
2017-08-28T02:18:31.333Z,8.70
2017-08-28T02:20:59.661Z,7.87
2017-08-28T02:23:29.214Z,8.60
2017-08-28T02:25:57.524Z,6.87
2017-08-28T02:28:26.156Z,7.73
2017-08-28T02:30:55.589Z,8.40
2017-08-28T02:33:23.919Z,7.87
2017-08-28T02:35:52.212Z,7.83
2017-08-28T02:38:20.516Z,7.73
2017-08-28T02:40:49.194Z,8.90
2017-08-28T02:43:17.792Z,7.93
2017-08-28T02:45:46.109Z,7.20
2017-08-28T02:48:14.478Z,7.23
2017-08-28T02:50:42.788Z,7.33
2017-08-28T02:53:11.401Z,6.57
2017-08-28T02:55:40.609Z,7.40
2017-08-28T02:58:08.917Z,7.30
2017-08-28T03:00:37.212Z,7.33
2017-08-28T03:03:06.167Z,8.70
2017-08-28T03:05:34.749Z,6.77
2017-08-28T03:08:03.519Z,7.03
2017-08-28T03:10:32.516Z,6.30
2017-08-28T03:13:00.942Z,7.87
2017-08-28T03:15:29.283Z,6.90
2017-08-28T03:17:57.925Z,9.40
2017-08-28T03:20:27.010Z,7.60
2017-08-28T03:22:55.333Z,7.90
2017-08-28T03:25:23.992Z,10.77
2017-08-28T03:27:52.387Z,10.30
2017-08-28T03:30:20.777Z,14.20
2017-08-28T03:32:49.427Z,10.80
2017-08-28T03:35:17.832Z,8.93
2017-08-28T03:37:46.140Z,10.97
2017-08-28T03:40:14.437Z,11.87
2017-08-28T03:42:42.728Z,8.53
2017-08-28T03:45:11.327Z,10.60
2017-08-28T03:47:39.611Z,8.17
2017-08-28T03:50:07.963Z,11.00
2017-08-28T03:52:36.299Z,8.70
2017-08-28T03:55:05.273Z,9.83
2017-08-28T03:57:33.860Z,9.20
2017-08-28T04:00:02.203Z,11.00
2017-08-28T04:02:31.311Z,8.47
2017-08-28T04:04:59.623Z,8.87
2017-08-28T04:07:27.912Z,9.63
2017-08-28T04:09:56.506Z,9.23
2017-08-28T04:12:24.792Z,14.00
2017-08-28T04:14:53.115Z,8.43
2017-08-28T04:17:22.494Z,9.50
2017-08-28T04:19:50.779Z,9.30
2017-08-28T04:22:20.443Z,9.27
2017-08-28T04:24:49.075Z,11.33
2017-08-28T04:27:17.413Z,11.93
2017-08-28T04:29:45.962Z,10.20
2017-08-28T04:32:16.020Z,9.73
2017-08-28T04:34:44.311Z,10.33
2017-08-28T04:37:12.944Z,8.10
2017-08-28T04:39:42.101Z,8.90
2017-08-28T04:42:10.432Z,11.77
2017-08-28T04:44:39.737Z,10.30
2017-08-28T04:47:08.079Z,9.90
2017-08-28T04:49:37.190Z,9.80
2017-08-28T04:52:05.890Z,10.37
2017-08-28T04:54:34.247Z,9.67
2017-08-28T04:57:02.849Z,12.27
2017-08-28T04:59:31.140Z,10.73
2017-08-28T05:02:00.263Z,13.93
2017-08-28T05:04:30.315Z,9.33
2017-08-28T05:06:58.637Z,10.30
2017-08-28T05:09:28.986Z,8.00
2017-08-28T05:11:58.546Z,7.90
2017-08-28T05:14:26.869Z,9.70
2017-08-28T05:16:55.451Z,8.73
2017-08-28T05:19:23.759Z,13.60
2017-08-28T05:21:52.656Z,9.13
2017-08-28T05:24:21.364Z,10.17
2017-08-28T05:26:49.650Z,11.30
2017-08-28T05:29:18.745Z,17.53
2017-08-28T05:31:47.416Z,15.80
2017-08-28T05:34:18.489Z,11.63
2017-08-28T05:36:48.417Z,10.83
2017-08-28T05:39:18.818Z,11.33
2017-08-28T05:41:49.120Z,9.70
2017-08-28T05:44:18.696Z,15.87
2017-08-28T05:46:49.486Z,10.93
2017-08-28T05:49:19.035Z,11.70
2017-08-28T05:51:48.899Z,10.97
2017-08-28T05:54:18.777Z,10.70
2017-08-28T05:56:48.612Z,11.23
2017-08-28T05:59:18.506Z,9.90
2017-08-28T06:01:48.036Z,13.53
2017-08-28T06:04:19.234Z,9.30
2017-08-28T06:06:48.768Z,8.70
2017-08-28T06:09:18.680Z,16.00
2017-08-28T06:11:48.266Z,10.17
2017-08-28T06:14:18.654Z,9.20
2017-08-28T06:16:48.160Z,9.10
2017-08-28T06:19:19.033Z,8.57
2017-08-28T06:21:49.289Z,9.93
2017-08-28T06:24:18.803Z,9.80
2017-08-28T06:26:48.430Z,9.07
2017-08-28T06:29:18.934Z,10.07
2017-08-28T06:31:48.730Z,9.27
2017-08-28T06:34:18.256Z,10.23
2017-08-28T06:36:47.819Z,11.43
2017-08-28T06:39:17.710Z,8.23
2017-08-28T06:41:47.279Z,10.97
2017-08-28T06:44:17.275Z,10.90
2017-08-28T06:46:47.398Z,8.53
2017-08-28T06:49:16.961Z,15.03
2017-08-28T06:51:46.780Z,9.00
2017-08-28T06:54:16.333Z,10.70
2017-08-28T06:56:46.274Z,10.67
2017-08-28T06:59:15.766Z,10.23
2017-08-28T07:01:46.890Z,11.93
2017-08-28T07:04:16.486Z,14.37
2017-08-28T07:06:46.383Z,9.47
2017-08-28T07:09:16.670Z,10.10
2017-08-28T07:11:46.576Z,11.53
2017-08-28T07:14:17.019Z,9.10
2017-08-28T07:16:46.892Z,8.37
2017-08-28T07:19:17.302Z,14.33
2017-08-28T07:21:47.115Z,7.70
2017-08-28T07:24:17.281Z,8.37
2017-08-28T07:26:45.447Z,8.30
2017-08-28T07:29:14.630Z,5.37
2017-08-28T07:31:42.949Z,5.03
2017-08-28T07:34:17.429Z,4.63
2017-08-28T07:36:46.116Z,5.80
2017-08-28T07:39:15.032Z,5.93
2017-08-28T07:41:44.397Z,7.67
2017-08-28T07:44:12.739Z,5.10
2017-08-28T07:46:41.375Z,4.30
2017-08-28T07:49:09.686Z,5.57
2017-08-28T07:51:37.972Z,5.47
2017-08-28T07:54:07.702Z,4.77
2017-08-28T07:56:36.184Z,6.77
2017-08-28T07:59:05.156Z,7.63
2017-08-28T08:01:33.495Z,6.47
2017-08-28T08:04:01.792Z,14.40
2017-08-28T08:06:30.447Z,8.17
2017-08-28T08:08:59.226Z,8.20
2017-08-28T08:11:27.578Z,9.17
2017-08-28T08:13:55.913Z,9.57
2017-08-28T08:16:24.205Z,9.67
2017-08-28T08:18:52.815Z,8.90
2017-08-28T08:21:21.138Z,6.57
2017-08-28T08:23:50.312Z,5.50
2017-08-28T08:26:19.054Z,5.50
2017-08-28T08:28:47.366Z,8.63
2017-08-28T08:31:15.707Z,5.80
2017-08-28T08:33:51.043Z,7.93
2017-08-28T08:36:20.587Z,9.93
2017-08-28T08:38:50.401Z,7.63
2017-08-28T08:41:19.969Z,5.53
2017-08-28T08:43:50.383Z,7.10
2017-08-28T08:46:19.918Z,10.97
2017-08-28T08:48:49.424Z,4.67
2017-08-28T08:51:19.019Z,5.80
2017-08-28T08:53:49.071Z,6.13
2017-08-28T08:56:18.860Z,8.63
2017-08-28T08:58:48.407Z,4.10
2017-08-28T09:01:17.924Z,7.43
2017-08-28T09:03:49.255Z,6.53
2017-08-28T09:06:19.187Z,7.57
2017-08-28T09:08:49.076Z,7.37
2017-08-28T09:11:18.646Z,4.30
2017-08-28T09:13:48.161Z,4.47
2017-08-28T09:16:17.803Z,2.80
2017-08-28T09:18:47.359Z,4.70
2017-08-28T09:21:17.529Z,4.10
2017-08-28T09:23:47.103Z,5.40
2017-08-28T09:26:17.807Z,4.60
2017-08-28T09:28:47.366Z,3.90
2017-08-28T09:31:17.209Z,4.67
2017-08-28T09:33:46.767Z,4.37
2017-08-28T09:36:16.677Z,3.67
2017-08-28T09:38:46.217Z,3.90
2017-08-28T09:41:15.788Z,5.10
2017-08-28T09:43:45.702Z,10.47
2017-08-28T09:46:15.221Z,4.13
2017-08-28T09:48:44.759Z,3.63
2017-08-28T09:51:14.335Z,2.70
2017-08-28T09:53:43.885Z,5.93
2017-08-28T09:56:12.392Z,4.33
2017-08-28T09:58:40.697Z,3.03
2017-08-28T10:01:08.998Z,3.93
2017-08-28T10:03:37.664Z,6.07
2017-08-28T10:06:05.995Z,4.13
2017-08-28T10:08:34.254Z,6.57
2017-08-28T10:11:02.822Z,4.07
2017-08-28T10:13:31.334Z,3.10
2017-08-28T10:16:00.176Z,3.40
2017-08-28T10:18:29.958Z,2.90
2017-08-28T10:20:59.524Z,2.17
2017-08-28T10:23:28.468Z,4.63
2017-08-28T10:25:56.836Z,2.67
2017-08-28T10:28:25.120Z,4.63
2017-08-28T10:30:53.461Z,5.10
2017-08-28T10:33:21.912Z,2.63
2017-08-28T10:35:50.537Z,3.23
2017-08-28T10:38:18.855Z,2.60
2017-08-28T10:40:47.820Z,2.27
2017-08-28T10:43:16.189Z,6.30
2017-08-28T10:45:44.529Z,6.00
2017-08-28T10:48:13.472Z,2.83
2017-08-28T10:50:41.796Z,2.50
2017-08-28T10:53:17.589Z,2.80
2017-08-28T10:55:47.263Z,2.90
2017-08-28T10:58:17.187Z,2.43
2017-08-28T11:00:45.548Z,2.07
2017-08-28T11:03:13.885Z,3.13
2017-08-28T11:05:42.995Z,3.00
2017-08-28T11:08:11.293Z,2.40
2017-08-28T11:10:40.127Z,3.00
2017-08-28T11:13:10.556Z,2.33
2017-08-28T11:15:38.804Z,2.40
2017-08-28T11:18:09.011Z,2.30
2017-08-28T11:20:37.333Z,1.47
2017-08-28T11:23:06.424Z,1.70
2017-08-28T11:25:37.028Z,1.43
2017-08-28T11:28:06.740Z,1.90
2017-08-28T11:30:36.262Z,1.60
2017-08-28T11:33:05.888Z,2.23
2017-08-28T11:35:34.873Z,1.73
2017-08-28T11:38:03.623Z,1.50
2017-08-28T11:40:31.895Z,1.47
2017-08-28T11:43:00.225Z,1.60
2017-08-28T11:45:28.533Z,4.13
2017-08-28T11:47:57.646Z,3.77
2017-08-28T11:50:26.418Z,1.50
2017-08-28T11:52:54.774Z,2.10
2017-08-28T11:55:24.283Z,1.80
2017-08-28T11:57:54.006Z,2.70
2017-08-28T12:00:23.325Z,1.70
2017-08-28T12:02:51.964Z,1.67
2017-08-28T12:05:22.352Z,2.40
2017-08-28T12:07:52.213Z,4.17
2017-08-28T12:10:20.385Z,2.33
2017-08-28T12:12:50.478Z,2.27
2017-08-28T12:15:18.669Z,1.40
2017-08-28T12:17:48.332Z,1.20
2017-08-28T12:20:16.812Z,1.70
2017-08-28T12:22:45.940Z,2.63
2017-08-28T12:25:15.638Z,1.63
2017-08-28T12:27:45.702Z,1.90
2017-08-28T12:30:15.337Z,1.97
2017-08-28T12:32:44.381Z,2.50
2017-08-28T12:35:12.684Z,2.20
2017-08-28T12:37:41.617Z,1.93
2017-08-28T12:40:10.246Z,4.00
2017-08-28T12:42:38.552Z,3.30
2017-08-28T12:45:07.345Z,2.23
2017-08-28T12:47:35.645Z,2.87
2017-08-28T12:50:03.940Z,1.87
2017-08-28T12:52:33.710Z,1.87
2017-08-28T12:55:03.018Z,5.40
2017-08-28T12:57:31.326Z,2.17
2017-08-28T12:59:59.697Z,1.73
2017-08-28T13:02:28.004Z,1.20
2017-08-28T13:04:56.677Z,4.50
2017-08-28T13:07:25.637Z,1.60
2017-08-28T13:09:54.318Z,2.30
2017-08-28T13:12:23.305Z,4.60
2017-08-28T13:14:51.624Z,1.87
2017-08-28T13:17:20.305Z,2.13
2017-08-28T13:19:48.667Z,2.53
2017-08-28T13:22:17.094Z,1.70
2017-08-28T13:24:45.458Z,2.00
2017-08-28T13:27:13.775Z,2.77
2017-08-28T13:29:42.362Z,2.23
2017-08-28T13:32:10.666Z,2.00
2017-08-28T13:34:39.252Z,1.87
2017-08-28T13:37:08.702Z,1.17
2017-08-28T13:39:37.050Z,2.40
2017-08-28T13:42:05.782Z,1.53
2017-08-28T13:44:35.798Z,2.13
2017-08-28T13:47:04.138Z,1.80
2017-08-28T13:49:33.651Z,6.00
2017-08-28T13:52:02.485Z,1.57
2017-08-28T13:54:30.818Z,4.70
2017-08-28T13:56:59.433Z,3.27
2017-08-28T13:59:27.802Z,2.40
2017-08-28T14:01:57.268Z,2.83
2017-08-28T14:04:26.434Z,2.90
2017-08-28T14:06:55.570Z,1.43
2017-08-28T14:09:25.387Z,2.97
2017-08-28T14:11:54.811Z,1.73
2017-08-28T14:14:23.975Z,2.10
2017-08-28T14:16:52.868Z,1.20
2017-08-28T14:19:22.158Z,2.20
2017-08-28T14:21:51.995Z,1.73
2017-08-28T14:24:21.937Z,2.50
2017-08-28T14:26:50.557Z,1.27
2017-08-28T14:29:20.144Z,1.80
2017-08-28T14:31:48.512Z,4.50
2017-08-28T14:34:18.339Z,3.97
2017-08-28T14:36:46.732Z,1.57
2017-08-28T14:39:15.049Z,3.53
2017-08-28T14:41:43.456Z,1.40
2017-08-28T14:44:12.314Z,1.77
2017-08-28T14:46:40.985Z,1.63
2017-08-28T14:49:09.329Z,1.70
2017-08-28T14:51:38.216Z,1.37
2017-08-28T14:54:07.612Z,2.45
2017-08-28T14:56:36.289Z,1.30
2017-08-28T14:59:05.432Z,1.20
2017-08-28T15:01:34.211Z,1.60
2017-08-28T15:04:03.718Z,2.80
2017-08-28T15:06:33.022Z,2.80
2017-08-28T15:09:01.984Z,2.45
2017-08-28T15:11:30.327Z,1.40
2017-08-28T15:13:58.983Z,1.48
2017-08-28T15:16:27.401Z,0.90
2017-08-28T15:18:57.281Z,3.33
2017-08-28T15:21:25.957Z,2.03
2017-08-28T15:23:54.246Z,2.13
2017-08-28T15:26:22.634Z,2.40
2017-08-28T15:28:50.964Z,1.50
2017-08-28T15:31:19.286Z,1.15
2017-08-28T15:33:47.681Z,1.77
2017-08-28T15:36:18.640Z,1.40
2017-08-28T15:38:46.998Z,1.60
2017-08-28T15:41:16.522Z,1.40
2017-08-28T15:43:44.883Z,1.57
2017-08-28T15:46:13.219Z,2.50
2017-08-28T15:48:41.521Z,1.73
2017-08-28T15:51:09.957Z,1.80
2017-08-28T15:53:38.597Z,5.20
2017-08-28T15:56:08.680Z,1.40
2017-08-28T15:58:37.034Z,1.47
2017-08-28T16:01:05.369Z,1.50
2017-08-28T16:03:33.668Z,3.40
2017-08-28T16:06:02.307Z,3.00
2017-08-28T16:08:30.630Z,1.57
2017-08-28T16:10:58.949Z,1.63
2017-08-28T16:13:27.576Z,1.80
2017-08-28T16:15:57.046Z,1.90
2017-08-28T16:18:25.349Z,6.30
2017-08-28T16:20:54.182Z,1.40
2017-08-28T16:23:22.485Z,2.43
2017-08-28T16:25:51.178Z,2.80
2017-08-28T16:28:20.136Z,4.73
2017-08-28T16:30:48.456Z,1.73
2017-08-28T16:33:16.884Z,1.70
2017-08-28T16:35:45.890Z,2.97
2017-08-28T16:38:15.351Z,3.90
2017-08-28T16:40:43.667Z,2.30
2017-08-28T16:43:13.396Z,2.77
2017-08-28T16:45:42.537Z,5.10
2017-08-28T16:48:12.044Z,7.90
2017-08-28T16:50:40.740Z,1.70
2017-08-28T16:53:09.358Z,1.70
2017-08-28T16:55:38.032Z,1.83
2017-08-28T16:58:06.318Z,3.37
2017-08-28T17:00:35.746Z,5.33
2017-08-28T17:03:04.275Z,2.73
2017-08-28T17:05:33.651Z,3.87
2017-08-28T17:08:01.980Z,3.73
2017-08-28T17:10:32.823Z,2.90
2017-08-28T17:13:01.121Z,3.47
2017-08-28T17:15:29.439Z,1.93
2017-08-28T17:17:58.589Z,4.53
2017-08-28T17:20:27.561Z,3.87
2017-08-28T17:22:55.861Z,2.30
2017-08-28T17:25:24.187Z,2.57
2017-08-28T17:27:52.513Z,5.17
2017-08-28T17:30:21.141Z,2.77
2017-08-28T17:32:49.448Z,3.07
2017-08-28T17:35:17.753Z,4.80
2017-08-28T17:37:46.430Z,11.70
2017-08-28T17:40:14.808Z,3.10
2017-08-28T17:42:43.355Z,4.47
2017-08-28T17:45:12.276Z,2.10
2017-08-28T17:47:41.203Z,3.73
2017-08-28T17:50:09.883Z,4.73
2017-08-28T17:52:38.190Z,4.23
2017-08-28T17:55:06.485Z,3.77
2017-08-28T17:57:35.631Z,2.30
2017-08-28T18:00:03.903Z,2.33
2017-08-28T18:02:32.215Z,2.00
2017-08-28T18:05:00.531Z,3.73
2017-08-28T18:07:28.867Z,2.13
2017-08-28T18:09:58.375Z,5.50
2017-08-28T18:12:26.737Z,3.00
2017-08-28T18:14:55.145Z,4.53
2017-08-28T18:17:24.778Z,3.80
2017-08-28T18:19:53.086Z,3.70
2017-08-28T18:22:22.123Z,3.90
2017-08-28T18:24:50.423Z,4.57
2017-08-28T18:27:19.011Z,3.10
2017-08-28T18:29:47.681Z,4.90
2017-08-28T18:32:16.006Z,3.57
2017-08-28T18:34:44.319Z,4.57
2017-08-28T18:37:12.658Z,4.03
2017-08-28T18:39:40.978Z,2.50
2017-08-28T18:42:09.597Z,10.93
2017-08-28T18:44:37.933Z,3.30
2017-08-28T18:47:06.243Z,5.80
2017-08-28T18:49:35.038Z,3.40
2017-08-28T18:52:03.600Z,5.77
2017-08-28T18:54:31.939Z,5.00
2017-08-28T18:57:00.260Z,4.97
2017-08-28T18:59:28.597Z,6.10
2017-08-28T19:01:58.056Z,5.40
2017-08-28T19:04:27.162Z,6.40
2017-08-28T19:06:56.629Z,9.70
2017-08-28T19:09:25.231Z,5.93
2017-08-28T19:11:53.532Z,6.60
2017-08-28T19:14:21.849Z,5.87
2017-08-28T19:16:50.414Z,6.00
2017-08-28T19:19:19.534Z,4.30
2017-08-28T19:21:47.816Z,5.07
2017-08-28T19:24:16.777Z,8.63
2017-08-28T19:26:45.039Z,4.30
2017-08-28T19:29:13.862Z,4.13
2017-08-28T19:31:42.159Z,4.57
2017-08-28T19:34:15.352Z,3.83
2017-08-28T19:36:46.654Z,5.90
2017-08-28T19:39:14.932Z,5.83
2017-08-28T19:41:44.917Z,4.50
2017-08-28T19:44:13.242Z,5.13
2017-08-28T19:46:41.579Z,8.20
2017-08-28T19:49:10.197Z,4.97
2017-08-28T19:51:39.635Z,6.50
2017-08-28T19:54:07.949Z,4.10
2017-08-28T19:56:36.997Z,5.57
2017-08-28T19:59:05.283Z,8.00
2017-08-28T20:01:40.301Z,7.03
2017-08-28T20:04:09.885Z,7.00
2017-08-28T20:06:38.170Z,5.10
2017-08-28T20:09:06.490Z,10.30
2017-08-28T20:11:34.804Z,8.40
2017-08-28T20:14:03.444Z,6.30
2017-08-28T20:16:32.550Z,7.10
2017-08-28T20:19:01.472Z,7.53
2017-08-28T20:21:29.792Z,5.33
2017-08-28T20:23:58.092Z,5.60
2017-08-28T20:26:27.054Z,7.80
2017-08-28T20:28:56.124Z,4.60
2017-08-28T20:31:24.509Z,5.30
2017-08-28T20:33:53.093Z,4.97
2017-08-28T20:36:21.386Z,6.90
2017-08-28T20:38:49.686Z,4.30
2017-08-28T20:41:18.373Z,4.50
2017-08-28T20:43:46.668Z,6.20
2017-08-28T20:46:15.724Z,6.07
2017-08-28T20:48:44.383Z,9.23
2017-08-28T20:51:13.334Z,7.83
2017-08-28T20:53:42.270Z,4.40
2017-08-28T20:56:10.886Z,9.20
2017-08-28T20:58:40.125Z,7.60
2017-08-28T21:01:08.443Z,6.43
2017-08-28T21:03:37.064Z,6.30
2017-08-28T21:06:05.445Z,7.97
2017-08-28T21:08:34.646Z,5.97
2017-08-28T21:11:02.972Z,8.33
2017-08-28T21:13:31.292Z,8.30
2017-08-28T21:15:59.919Z,7.03
2017-08-28T21:18:28.259Z,6.00
2017-08-28T21:20:56.560Z,5.70
2017-08-28T21:23:24.894Z,6.57
2017-08-28T21:25:53.305Z,9.37
2017-08-28T21:28:22.244Z,6.63
2017-08-28T21:30:50.799Z,6.33
2017-08-28T21:33:19.071Z,6.90
2017-08-28T21:35:47.710Z,7.70
2017-08-28T21:38:16.686Z,11.77
2017-08-28T21:40:45.692Z,7.73
2017-08-28T21:43:14.050Z,9.30
2017-08-28T21:45:43.277Z,8.27
2017-08-28T21:48:12.236Z,9.70
2017-08-28T21:50:40.554Z,9.90
2017-08-28T21:53:09.453Z,10.60
2017-08-28T21:55:38.128Z,8.40
2017-08-28T21:58:06.726Z,8.97
2017-08-28T22:00:35.791Z,10.23
2017-08-28T22:03:04.716Z,10.43
2017-08-28T22:05:33.040Z,10.03
2017-08-28T22:08:01.701Z,14.03
2017-08-28T22:10:30.033Z,7.17
2017-08-28T22:12:58.340Z,11.07
2017-08-28T22:15:26.656Z,10.87
2017-08-28T22:17:54.930Z,10.47
2017-08-28T22:20:24.152Z,8.83
2017-08-28T22:22:52.457Z,16.93
2017-08-28T22:25:21.598Z,16.47
2017-08-28T22:27:50.169Z,11.43
2017-08-28T22:30:19.169Z,9.30
2017-08-28T22:32:47.486Z,13.80
2017-08-28T22:35:16.122Z,10.90
2017-08-28T22:37:44.396Z,12.37
2017-08-28T22:40:12.684Z,10.53
2017-08-28T22:42:41.905Z,11.73
2017-08-28T22:45:10.242Z,18.07
2017-08-28T22:47:38.536Z,15.70
2017-08-28T22:50:06.869Z,14.17
2017-08-28T22:52:35.184Z,16.93
2017-08-28T22:55:03.840Z,12.73
2017-08-28T22:57:32.276Z,12.93
2017-08-28T23:00:00.615Z,13.90
2017-08-28T23:02:29.361Z,16.63
2017-08-28T23:04:57.640Z,13.40
2017-08-28T23:07:26.652Z,16.53
2017-08-28T23:09:55.269Z,13.27
2017-08-28T23:12:23.551Z,14.43
2017-08-28T23:14:51.915Z,14.20
2017-08-28T23:17:21.041Z,9.33
2017-08-28T23:19:49.360Z,10.90
2017-08-28T23:22:17.650Z,11.20
2017-08-28T23:24:46.272Z,17.43
2017-08-28T23:27:14.563Z,11.30
2017-08-28T23:29:42.880Z,11.43
2017-08-28T23:32:11.543Z,12.97
2017-08-28T23:34:39.832Z,13.07
2017-08-28T23:37:08.554Z,13.23
2017-08-28T23:39:36.943Z,16.47
2017-08-28T23:42:05.666Z,13.20
2017-08-28T23:44:33.996Z,14.70
2017-08-28T23:47:02.698Z,11.63
2017-08-28T23:49:31.348Z,12.77
2017-08-28T23:51:59.634Z,11.77
2017-08-28T23:54:27.945Z,11.53
2017-08-28T23:56:56.595Z,13.63
2017-08-28T23:59:25.011Z,12.10
